createdAt,value
2022-08-07T00:00:25.977Z,98.30
2022-08-07T00:02:53.751Z,98.30
2022-08-07T00:05:23.683Z,98.20
2022-08-07T00:07:58.232Z,98.10
2022-08-07T00:10:30.920Z,97.80
2022-08-07T00:13:09.643Z,97.70
2022-08-07T00:15:51.875Z,98.00
2022-08-07T00:18:24.255Z,98.80
2022-08-07T00:20:56.725Z,99.20
2022-08-07T00:23:24.983Z,99.10
2022-08-07T00:25:59.205Z,99.00
2022-08-07T00:28:31.571Z,99.10
2022-08-07T00:31:12.446Z,99.00
2022-08-07T00:33:43.578Z,98.90
2022-08-07T00:36:14.589Z,98.90
2022-08-07T00:38:43.810Z,98.70
2022-08-07T00:41:14.714Z,98.70
2022-08-07T00:43:59.298Z,98.60
2022-08-07T00:46:30.161Z,98.60
2022-08-07T00:49:03.851Z,98.50
2022-08-07T00:51:56.909Z,98.40
2022-08-07T00:54:19.918Z,98.40
2022-08-07T00:56:49.908Z,98.30
2022-08-07T00:59:20.018Z,98.30
2022-08-07T01:01:59.529Z,98.30
2022-08-07T01:04:26.478Z,98.40
2022-08-07T01:06:57.697Z,98.40
2022-08-07T01:10:06.783Z,98.50
2022-08-07T01:12:30.177Z,98.40
2022-08-07T01:15:01.070Z,98.40
2022-08-07T01:17:31.955Z,98.50
2022-08-07T01:20:10.020Z,98.50
2022-08-07T01:22:53.993Z,98.50
2022-08-07T01:25:55.146Z,98.60
2022-08-07T01:28:20.144Z,98.70
2022-08-07T01:30:51.253Z,98.80
2022-08-07T01:33:20.026Z,98.90
2022-08-07T01:38:25.880Z,98.90
2022-08-07T01:41:02.431Z,98.90
2022-08-07T01:43:34.552Z,99.00
2022-08-07T01:46:08.153Z,99.00
2022-08-07T01:48:42.117Z,98.90
2022-08-07T01:52:01.663Z,98.90
2022-08-07T01:54:32.608Z,98.90
2022-08-07T01:57:20.693Z,98.90
2022-08-07T02:00:00.535Z,98.80
2022-08-07T02:03:18.524Z,98.80
2022-08-07T02:05:47.566Z,98.80
2022-08-07T02:08:23.814Z,98.80
2022-08-07T02:10:55.028Z,98.80
2022-08-07T02:13:59.816Z,98.90
2022-08-07T02:16:19.760Z,98.90
2022-08-07T02:18:51.276Z,98.80
2022-08-07T02:21:20.069Z,98.90
2022-08-07T02:23:49.313Z,99.00
2022-08-07T02:26:33.857Z,99.10
2022-08-07T02:29:05.595Z,99.10
2022-08-07T02:31:42.117Z,98.50
2022-08-07T02:34:11.461Z,98.70
2022-08-07T02:36:52.188Z,99.60
2022-08-07T02:39:43.383Z,99.90
2022-08-07T02:42:16.294Z,99.90
2022-08-07T02:44:50.118Z,99.90
2022-08-07T02:47:23.613Z,99.90
2022-08-07T02:49:59.613Z,99.90
2022-08-07T02:52:37.448Z,99.90
2022-08-07T02:55:27.508Z,99.90
2022-08-07T02:58:07.918Z,99.90
2022-08-07T03:00:40.737Z,99.90
2022-08-07T03:03:22.628Z,99.90
2022-08-07T03:05:53.569Z,99.90
2022-08-07T03:08:26.869Z,99.90
2022-08-07T03:10:59.152Z,99.90
2022-08-07T03:13:38.746Z,99.90
2022-08-07T03:16:08.439Z,99.90
2022-08-07T03:18:36.551Z,99.90
2022-08-07T03:21:08.648Z,99.90
2022-08-07T03:24:18.132Z,99.90
2022-08-07T03:26:32.141Z,99.90
2022-08-07T03:29:05.276Z,99.90
2022-08-07T03:31:42.615Z,99.90
2022-08-07T03:34:18.601Z,99.90
2022-08-07T03:36:54.308Z,99.90
2022-08-07T03:39:46.155Z,99.90
2022-08-07T03:42:14.509Z,99.90
2022-08-07T03:44:42.365Z,99.90
2022-08-07T03:47:15.256Z,99.90
2022-08-07T03:49:48.041Z,99.90
2022-08-07T03:52:26.120Z,99.90
2022-08-07T03:55:06.453Z,99.90
2022-08-07T03:58:33.954Z,99.90
2022-08-07T04:00:33.808Z,99.90
2022-08-07T04:03:04.788Z,99.90
2022-08-07T04:05:40.491Z,99.90
2022-08-07T04:08:15.841Z,99.90
2022-08-07T04:10:54.635Z,99.90
2022-08-07T04:14:10.184Z,99.90
2022-08-07T04:16:31.499Z,99.90
2022-08-07T04:19:04.340Z,99.90
2022-08-07T04:21:58.815Z,99.90
2022-08-07T04:24:34.125Z,99.90
2022-08-07T04:27:15.089Z,99.90
2022-08-07T04:30:01.181Z,99.90
2022-08-07T04:32:48.427Z,99.90
2022-08-07T04:35:26.435Z,99.90
2022-08-07T04:38:03.552Z,99.90
2022-08-07T04:40:44.068Z,99.90
2022-08-07T04:44:12.365Z,99.90
2022-08-07T04:46:59.530Z,99.90
2022-08-07T04:50:04.211Z,99.90
2022-08-07T04:52:51.996Z,99.90
2022-08-07T04:58:12.320Z,99.90
2022-08-07T05:02:02.418Z,99.90
2022-08-07T05:04:50.457Z,99.90
2022-08-07T05:07:29.165Z,99.90
2022-08-07T05:10:07.808Z,99.90
2022-08-07T05:12:52.763Z,99.90
2022-08-07T05:15:35.884Z,99.90
2022-08-07T05:18:10.445Z,99.90
2022-08-07T05:20:45.998Z,99.90
2022-08-07T05:23:20.580Z,99.90
2022-08-07T05:26:13.518Z,99.90
2022-08-07T05:28:50.197Z,99.90
2022-08-07T05:31:24.568Z,99.90
2022-08-07T05:34:04.731Z,99.90
2022-08-07T05:36:39.349Z,99.90
2022-08-07T05:40:07.112Z,99.90
2022-08-07T05:42:10.156Z,99.90
2022-08-07T05:44:46.553Z,99.90
2022-08-07T05:47:37.854Z,99.90
2022-08-07T05:50:10.193Z,99.90
2022-08-07T05:52:37.386Z,99.90
2022-08-07T05:55:10.895Z,99.90
2022-08-07T05:57:42.853Z,99.90
2022-08-07T06:00:16.480Z,99.90
2022-08-07T06:02:53.198Z,99.90
2022-08-07T06:05:28.543Z,99.90
2022-08-07T06:08:14.294Z,99.90
2022-08-07T06:10:51.272Z,99.90
2022-08-07T06:14:10.689Z,99.90
2022-08-07T06:16:13.229Z,99.90
2022-08-07T06:18:42.962Z,99.90
2022-08-07T06:22:16.133Z,99.90
2022-08-07T06:24:46.257Z,99.90
2022-08-07T06:26:47.236Z,99.90
2022-08-07T06:29:14.725Z,99.90
2022-08-07T06:31:49.720Z,99.90
2022-08-07T06:34:20.795Z,99.90
2022-08-07T06:36:51.809Z,99.90
2022-08-07T06:40:16.057Z,99.90
2022-08-07T06:42:37.149Z,99.90
2022-08-07T06:45:25.472Z,99.90
2022-08-07T06:47:58.484Z,99.90
2022-08-07T06:50:43.325Z,99.90
2022-08-07T06:53:18.572Z,99.90
2022-08-07T06:56:07.486Z,99.90
2022-08-07T07:00:11.913Z,99.90
2022-08-07T07:01:44.079Z,99.90
2022-08-07T07:04:32.343Z,99.90
2022-08-07T07:07:02.413Z,99.90
2022-08-07T07:09:47.246Z,99.90
2022-08-07T07:12:48.745Z,99.90
2022-08-07T07:15:32.564Z,99.90
2022-08-07T07:18:14.666Z,99.90
2022-08-07T07:21:13.610Z,99.90
2022-08-07T07:24:06.212Z,99.90
2022-08-07T07:26:38.024Z,99.90
2022-08-07T07:29:56.396Z,99.90
2022-08-07T07:32:10.397Z,99.90
2022-08-07T07:34:43.942Z,99.90
2022-08-07T07:37:21.848Z,99.90
2022-08-07T07:40:10.401Z,99.90
2022-08-07T07:42:51.060Z,99.90
2022-08-07T07:46:38.199Z,99.90
2022-08-07T07:48:34.847Z,99.90
2022-08-07T07:51:07.940Z,99.90
2022-08-07T07:53:44.629Z,99.90
2022-08-07T07:56:30.458Z,99.90
2022-08-07T07:59:02.198Z,99.90
2022-08-07T08:02:03.512Z,99.90
2022-08-07T08:04:20.303Z,99.90
2022-08-07T08:06:54.367Z,99.90
2022-08-07T08:09:29.230Z,99.90
2022-08-07T08:12:02.577Z,99.90
2022-08-07T08:14:36.200Z,98.90
2022-08-07T08:17:56.614Z,98.90
2022-08-07T08:20:17.303Z,98.90
2022-08-07T08:23:10.426Z,97.60
2022-08-07T08:26:04.579Z,96.80
2022-08-07T08:28:44.866Z,96.70
2022-08-07T08:31:30.205Z,96.80
2022-08-07T08:34:09.718Z,95.00
2022-08-07T08:36:41.218Z,94.70
2022-08-07T08:39:15.420Z,93.80
2022-08-07T08:41:59.387Z,94.30
2022-08-07T08:45:05.958Z,93.50
2022-08-07T08:48:10.680Z,93.10
2022-08-07T08:50:45.214Z,93.00
2022-08-07T08:53:26.459Z,93.40
2022-08-07T08:56:06.403Z,93.50
2022-08-07T08:58:54.303Z,92.40
2022-08-07T09:01:43.924Z,92.10
2022-08-07T09:04:30.355Z,88.30
2022-08-07T09:07:45.926Z,89.00
2022-08-07T09:10:28.233Z,90.40
2022-08-07T09:13:18.915Z,86.90
2022-08-07T09:16:25.228Z,83.50
2022-08-07T09:18:58.455Z,85.80
2022-08-07T09:21:34.306Z,83.00
2022-08-07T09:24:55.099Z,84.30
2022-08-07T09:28:01.219Z,82.30
2022-08-07T09:31:01.535Z,83.60
2022-08-07T09:34:00.510Z,77.00
2022-08-07T09:36:43.087Z,77.40
2022-08-07T09:39:54.794Z,76.60
2022-08-07T09:42:38.812Z,79.50
2022-08-07T09:47:24.545Z,77.40
2022-08-07T09:50:02.933Z,78.60
2022-08-07T09:52:16.639Z,78.60
2022-08-07T09:55:29.063Z,74.10
2022-08-07T09:58:18.757Z,76.60
2022-08-07T10:01:51.245Z,76.90
2022-08-07T10:04:32.769Z,75.30
2022-08-07T10:07:53.644Z,75.80
2022-08-07T10:11:59.222Z,78.00
2022-08-07T10:14:30.139Z,76.20
2022-08-07T10:17:18.698Z,72.80
2022-08-07T10:20:32.241Z,72.40
2022-08-07T10:24:05.281Z,73.10
2022-08-07T10:27:06.683Z,70.00
2022-08-07T10:30:06.511Z,70.30
2022-08-07T10:33:15.346Z,71.80
2022-08-07T10:36:12.975Z,69.10
2022-08-07T10:39:06.083Z,69.20
2022-08-07T10:42:00.411Z,67.80
2022-08-07T10:45:01.562Z,69.10
2022-08-07T10:48:09.716Z,67.20
2022-08-07T10:50:50.418Z,66.70
2022-08-07T10:54:12.210Z,66.90
2022-08-07T10:57:07.358Z,65.30
2022-08-07T11:00:04.731Z,67.90
2022-08-07T11:02:42.413Z,65.30
2022-08-07T11:05:35.667Z,66.00
2022-08-07T11:08:45.825Z,65.60
2022-08-07T11:12:02.382Z,65.40
2022-08-07T11:15:03.220Z,62.80
2022-08-07T11:17:48.569Z,60.70
2022-08-07T11:20:24.610Z,62.10
2022-08-07T11:23:26.178Z,62.00
2022-08-07T11:26:06.709Z,62.70
2022-08-07T11:28:53.420Z,64.70
2022-08-07T11:31:37.627Z,63.40
2022-08-07T11:34:29.644Z,62.50
2022-08-07T11:37:24.332Z,62.20
2022-08-07T11:40:39.464Z,63.60
2022-08-07T11:43:16.726Z,59.80
2022-08-07T11:46:48.778Z,58.70
2022-08-07T11:50:18.741Z,60.20
2022-08-07T11:53:25.338Z,58.80
2022-08-07T11:56:27.555Z,58.70
2022-08-07T12:00:12.652Z,58.40
2022-08-07T12:02:55.403Z,57.90
2022-08-07T12:05:48.885Z,57.00
2022-08-07T12:08:34.735Z,55.20
2022-08-07T12:11:22.468Z,57.70
2022-08-07T12:14:02.098Z,55.60
2022-08-07T12:16:35.326Z,56.50
2022-08-07T12:19:35.361Z,55.50
2022-08-07T12:23:02.366Z,54.10
2022-08-07T12:26:05.989Z,55.60
2022-08-07T12:29:38.401Z,55.50
2022-08-07T12:32:42.589Z,55.30
2022-08-07T12:35:13.617Z,54.40
2022-08-07T12:38:09.805Z,54.00
2022-08-07T12:40:47.446Z,55.20
2022-08-07T12:44:02.378Z,55.40
2022-08-07T12:46:58.113Z,54.90
2022-08-07T12:50:38.460Z,54.10
2022-08-07T12:53:19.197Z,52.60
2022-08-07T12:56:09.784Z,54.10
2022-08-07T12:58:46.805Z,54.00
2022-08-07T13:01:33.520Z,53.60
2022-08-07T13:04:05.043Z,53.60
2022-08-07T13:07:09.308Z,54.60
2022-08-07T13:10:37.646Z,52.60
2022-08-07T13:13:47.254Z,52.30
2022-08-07T13:16:44.383Z,52.70
2022-08-07T13:19:50.658Z,53.90
2022-08-07T13:22:31.403Z,53.20
2022-08-07T13:25:29.854Z,54.50
2022-08-07T13:28:14.341Z,54.90
2022-08-07T13:31:02.036Z,53.60
2022-08-07T13:34:32.697Z,53.50
2022-08-07T13:37:28.036Z,52.80
2022-08-07T13:40:36.405Z,52.70
2022-08-07T13:43:13.657Z,52.80
2022-08-07T13:46:12.454Z,50.90
2022-08-07T13:48:39.296Z,52.00
2022-08-07T13:51:27.329Z,52.10
2022-08-07T13:54:04.121Z,52.10
2022-08-07T13:56:40.868Z,50.60
2022-08-07T13:59:25.493Z,50.60
2022-08-07T14:02:07.647Z,51.60
2022-08-07T14:04:54.612Z,49.70
2022-08-07T14:07:31.839Z,50.80
2022-08-07T14:10:20.503Z,50.40
2022-08-07T14:13:03.753Z,51.00
2022-08-07T14:15:44.833Z,49.10
2022-08-07T14:18:56.725Z,50.40
2022-08-07T14:22:00.921Z,49.90
2022-08-07T14:24:42.634Z,49.10
2022-08-07T14:28:09.372Z,49.40
2022-08-07T14:32:59.921Z,50.30
2022-08-07T14:35:43.049Z,50.70
2022-08-07T14:38:26.807Z,50.20
2022-08-07T14:41:03.946Z,49.50
2022-08-07T14:43:58.741Z,49.60
2022-08-07T14:49:17.376Z,49.20
2022-08-07T14:52:03.212Z,49.40
2022-08-07T14:54:35.900Z,49.90
2022-08-07T14:57:18.811Z,49.30
2022-08-07T15:00:05.709Z,48.40
2022-08-07T15:02:35.199Z,48.50
2022-08-07T15:07:52.795Z,48.90
2022-08-07T15:13:22.406Z,50.20
2022-08-07T15:15:58.039Z,50.40
2022-08-07T15:18:41.606Z,51.80
2022-08-07T15:21:58.395Z,51.40
2022-08-07T15:25:12.960Z,51.60
2022-08-07T15:27:17.844Z,50.60
2022-08-07T15:30:04.384Z,50.80
2022-08-07T15:32:51.086Z,49.60
2022-08-07T15:36:00.759Z,51.20
2022-08-07T15:38:51.866Z,49.70
2022-08-07T15:44:15.347Z,52.30
2022-08-07T15:46:52.087Z,52.40
2022-08-07T15:50:04.119Z,51.60
2022-08-07T15:52:29.620Z,52.00
2022-08-07T15:55:02.269Z,51.20
2022-08-07T15:57:41.129Z,51.70
2022-08-07T16:00:31.938Z,50.40
2022-08-07T16:03:20.945Z,52.50
2022-08-07T16:05:51.019Z,52.50
2022-08-07T16:08:33.333Z,52.50
2022-08-07T16:11:26.326Z,52.60
2022-08-07T16:14:11.947Z,51.80
2022-08-07T16:18:02.639Z,53.20
2022-08-07T16:20:38.777Z,54.30
2022-08-07T16:23:53.947Z,51.30
2022-08-07T16:26:31.126Z,53.40
2022-08-07T16:29:18.427Z,53.30
2022-08-07T16:32:33.209Z,53.60
2022-08-07T16:35:51.579Z,53.50
2022-08-07T16:39:00.614Z,54.20
2022-08-07T16:41:57.192Z,53.80
2022-08-07T16:45:14.690Z,54.00
2022-08-07T16:48:27.619Z,54.00
2022-08-07T16:52:01.893Z,53.80
2022-08-07T16:55:08.509Z,54.00
2022-08-07T16:58:01.863Z,54.80
2022-08-07T17:01:01.337Z,54.90
2022-08-07T17:03:59.547Z,54.60
2022-08-07T17:07:03.024Z,54.50
2022-08-07T17:10:08.284Z,54.00
2022-08-07T17:13:17.945Z,55.00
2022-08-07T17:15:57.154Z,55.10
2022-08-07T17:19:23.966Z,55.20
2022-08-07T17:22:29.982Z,55.20
2022-08-07T17:25:20.193Z,54.90
2022-08-07T17:28:19.578Z,55.50
2022-08-07T17:31:16.020Z,55.30
2022-08-07T17:34:33.027Z,55.30
2022-08-07T17:37:09.851Z,56.50
2022-08-07T17:40:19.069Z,56.50
2022-08-07T17:43:18.180Z,56.60
2022-08-07T17:45:56.467Z,57.00
2022-08-07T17:48:42.339Z,57.30
2022-08-07T17:51:59.882Z,56.40
2022-08-07T17:54:53.488Z,57.20
2022-08-07T17:57:58.939Z,57.30
2022-08-07T18:00:34.756Z,57.30
2022-08-07T18:03:28.722Z,57.20
2022-08-07T18:06:37.046Z,57.60
2022-08-07T18:09:08.626Z,57.90
2022-08-07T18:12:07.731Z,58.10
2022-08-07T18:15:00.910Z,58.50
2022-08-07T18:18:46.315Z,58.80
2022-08-07T18:21:11.033Z,59.00
2022-08-07T18:24:07.502Z,59.10
2022-08-07T18:27:07.274Z,59.40
2022-08-07T18:30:32.691Z,59.40
2022-08-07T18:33:38.785Z,59.60
2022-08-07T18:36:54.360Z,60.00
2022-08-07T18:40:07.536Z,60.50
2022-08-07T18:43:12.059Z,61.10
2022-08-07T18:46:43.232Z,61.20
2022-08-07T18:50:29.915Z,61.30
2022-08-07T18:52:55.109Z,61.70
2022-08-07T18:55:57.367Z,61.70
2022-08-07T18:58:43.034Z,61.60
2022-08-07T19:02:34.050Z,62.20
2022-08-07T19:04:57.495Z,62.30
2022-08-07T19:07:51.664Z,62.80
2022-08-07T19:10:51.596Z,63.20
2022-08-07T19:13:55.455Z,63.50
2022-08-07T19:17:04.989Z,64.20
2022-08-07T19:19:53.839Z,65.50
2022-08-07T19:22:44.817Z,65.80
2022-08-07T19:26:21.894Z,66.00
2022-08-07T19:30:56.917Z,66.10
2022-08-07T19:31:37.072Z,66.60
2022-08-07T19:34:08.676Z,66.50
2022-08-07T19:36:43.679Z,67.20
2022-08-07T19:39:56.514Z,67.50
2022-08-07T19:42:24.636Z,67.70
2022-08-07T19:44:55.467Z,67.80
2022-08-07T19:47:31.156Z,67.70
2022-08-07T19:50:43.643Z,69.10
2022-08-07T19:52:59.201Z,68.10
2022-08-07T19:55:57.834Z,68.40
2022-08-07T19:58:27.965Z,68.70
2022-08-07T20:00:57.615Z,69.20
2022-08-07T20:03:34.145Z,69.70
2022-08-07T20:06:06.928Z,70.10
2022-08-07T20:08:48.838Z,71.70
2022-08-07T20:11:34.232Z,72.20
2022-08-07T20:14:13.528Z,73.50
2022-08-07T20:16:48.353Z,74.70
2022-08-07T20:19:25.177Z,75.50
2022-08-07T20:21:57.827Z,76.20
2022-08-07T20:24:34.393Z,77.40
2022-08-07T20:27:07.371Z,78.00
2022-08-07T20:29:47.872Z,78.10
2022-08-07T20:32:42.767Z,78.10
2022-08-07T20:35:26.258Z,78.40
2022-08-07T20:37:58.901Z,79.30
2022-08-07T20:40:34.588Z,80.20
2022-08-07T20:43:09.620Z,81.10
2022-08-07T20:46:28.048Z,82.40
2022-08-07T20:48:34.652Z,82.60
2022-08-07T20:51:09.605Z,83.40
2022-08-07T20:54:03.196Z,85.00
2022-08-07T20:56:29.518Z,85.50
2022-08-07T20:59:02.149Z,85.20
2022-08-07T21:01:46.024Z,85.00
2022-08-07T21:04:22.216Z,85.50
2022-08-07T21:06:56.818Z,87.70
2022-08-07T21:09:35.401Z,89.10
2022-08-07T21:12:29.148Z,88.40
2022-08-07T21:15:03.832Z,88.20
2022-08-07T21:18:02.674Z,88.60
2022-08-07T21:20:26.862Z,89.10
2022-08-07T21:23:07.354Z,89.60
2022-08-07T21:26:26.957Z,90.10
2022-08-07T21:29:15.681Z,90.20
2022-08-07T21:32:44.057Z,90.50
2022-08-07T21:35:10.800Z,90.70
2022-08-07T21:37:58.324Z,91.00
2022-08-07T21:41:09.560Z,91.60
2022-08-07T21:43:57.475Z,91.90
2022-08-07T21:46:43.608Z,92.20
2022-08-07T21:50:01.100Z,92.80
2022-08-07T21:52:48.065Z,93.30
2022-08-07T21:55:28.171Z,93.90
2022-08-07T21:58:45.759Z,94.40
2022-08-07T22:02:07.174Z,94.50
2022-08-07T22:04:32.013Z,94.70
2022-08-07T22:07:06.818Z,95.00
2022-08-07T22:09:54.117Z,95.50
2022-08-07T22:12:34.950Z,95.90
2022-08-07T22:16:45.175Z,96.20
2022-08-07T22:18:06.488Z,96.40
2022-08-07T22:20:52.772Z,96.60
2022-08-07T22:23:43.663Z,96.80
2022-08-07T22:26:31.004Z,97.00
2022-08-07T22:29:33.884Z,97.50
2022-08-07T22:32:37.079Z,98.00
2022-08-07T22:35:11.270Z,98.50
2022-08-07T22:38:02.931Z,98.70
2022-08-07T22:40:54.770Z,99.00
2022-08-07T22:43:47.460Z,99.40
2022-08-07T22:47:04.431Z,99.70
2022-08-07T22:50:04.293Z,99.90
2022-08-07T22:52:40.301Z,99.90
2022-08-07T22:55:47.509Z,99.90
2022-08-07T22:58:34.399Z,99.90
2022-08-07T23:01:50.355Z,99.90
2022-08-07T23:04:58.221Z,99.90
2022-08-07T23:07:53.035Z,99.90
2022-08-07T23:11:27.119Z,99.90
2022-08-07T23:14:40.743Z,99.90
2022-08-07T23:18:12.564Z,99.90
2022-08-07T23:21:06.601Z,99.90
2022-08-07T23:24:50.643Z,99.90
2022-08-07T23:28:22.773Z,99.90
2022-08-07T23:31:06.685Z,99.90
2022-08-07T23:34:33.888Z,99.90
2022-08-07T23:37:29.248Z,99.90
2022-08-07T23:40:17.923Z,99.90
2022-08-07T23:43:16.664Z,99.90
2022-08-07T23:46:02.299Z,99.90
2022-08-07T23:48:58.982Z,99.90
2022-08-07T23:53:00.257Z,99.90
2022-08-07T23:54:52.783Z,99.90
2022-08-07T23:57:44.259Z,99.90
